📊 Raw Sensor Data
Showing records 36051 to 36075 of 84,888 total
| ID | Distance (ft) | Battery V | Battery A | Int Temp (°F) | Int Humid (%) | Ext Temp (°F) | Solar V | RSSI | SNR | Time Stamp |
|---|---|---|---|---|---|---|---|---|---|---|
| 48850 | 15.3 | 3.80 | -5 | 62 | 45 | 64 | 0.00 | -70 | 7 | 08/11/2025 01:00 AM |
| 48849 | 15.4 | 3.80 | -5 | 63 | 46 | 64 | 0.00 | -69 | 8 | 08/11/2025 12:45 AM |
| 48848 | 15.3 | 3.80 | -5 | 64 | 46 | 64 | 0.00 | -69 | 8 | 08/11/2025 12:30 AM |
| 48847 | 15.3 | 3.91 | -5 | 65 | 46 | 65 | 0.00 | -69 | 8 | 08/11/2025 12:15 AM |
| 48846 | 15.3 | 3.91 | -5 | 65 | 46 | 66 | 0.00 | -71 | 8 | 08/11/2025 12:00 AM |
| 48845 | 15.3 | 3.80 | -5 | 66 | 46 | 66 | 0.00 | -71 | 8 | 08/10/2025 11:45 PM |
| 48844 | 15.3 | 3.80 | -5 | 67 | 47 | 67 | 0.00 | -69 | 8 | 08/10/2025 11:30 PM |
| 48843 | 15.3 | 3.91 | -5 | 67 | 47 | 68 | 0.00 | -69 | 8 | 08/10/2025 11:15 PM |
| 48842 | 15.3 | 3.91 | -5 | 68 | 47 | 69 | 0.10 | -70 | 8 | 08/10/2025 11:00 PM |
| 48841 | 15.4 | 3.81 | -5 | 69 | 47 | 70 | 0.00 | -71 | 8 | 08/10/2025 10:45 PM |
| 48840 | 15.4 | 3.91 | -5 | 70 | 47 | 71 | 0.00 | -69 | 7 | 08/10/2025 10:30 PM |
| 48839 | 15.4 | 3.81 | -5 | 71 | 47 | 71 | 0.00 | -69 | 8 | 08/10/2025 10:15 PM |
| 48838 | 15.4 | 3.91 | -5 | 72 | 48 | 72 | 0.00 | -69 | 8 | 08/10/2025 10:00 PM |
| 48837 | 15.4 | 3.81 | -5 | 72 | 48 | 73 | 0.00 | -71 | 7 | 08/10/2025 09:45 PM |
| 48836 | 15.3 | 3.81 | -5 | 73 | 49 | 73 | 0.00 | -70 | 8 | 08/10/2025 09:30 PM |
| 48835 | 15.3 | 3.82 | -5 | 73 | 50 | 74 | 0.00 | -70 | 7 | 08/10/2025 09:15 PM |
| 48834 | 15.4 | 3.82 | -5 | 74 | 51 | 74 | 0.00 | -70 | 8 | 08/10/2025 09:00 PM |
| 48833 | 15.3 | 3.82 | -5 | 76 | 52 | 75 | 0.00 | -70 | 8 | 08/10/2025 08:45 PM |
| 48832 | 15.4 | 3.83 | -5 | 77 | 54 | 76 | 0.00 | -70 | 8 | 08/10/2025 08:30 PM |
| 48831 | 15.4 | 3.84 | -5 | 80 | 56 | 77 | 1.00 | -70 | 8 | 08/10/2025 08:15 PM |
| 48830 | 15.4 | 3.90 | -34 | 84 | 55 | 79 | 2.00 | -70 | 8 | 08/10/2025 08:00 PM |
| 48829 | 15.4 | 3.94 | 0 | 89 | 54 | 84 | 4.50 | -70 | 8 | 08/10/2025 07:45 PM |
| 48828 | 15.5 | 3.95 | 0 | 93 | 53 | 88 | 4.60 | -70 | 8 | 08/10/2025 07:30 PM |
| 48827 | 15.5 | 3.97 | 10 | 96 | 53 | 90 | 4.50 | -70 | 7 | 08/10/2025 07:15 PM |
| 48826 | 15.6 | 4.01 | 7 | 98 | 53 | 91 | 4.60 | -70 | 8 | 08/10/2025 07:00 PM |